KELP/ELP METAR and TAF weather

Enter ICAO airport designator
Station Type Date Time Source
KELP METAR 2022/09/28 19:51 UTC NOAA

KELP 281951Z 12009G19KT 10SM FEW120 FEW250 29/00 A3026 RMK AO2 PK WND 08030/1859 SLP175 T02940000


Station Type Date Time Source
KELP Decoded METAR 2022/09/28 19:51 UTC NOAA

EL PASO INTERNATIONAL AIRPORT , TX, United States (KELP) 31-49N 106-23W 1197M
Sep 28, 2022 - 03:51 PM EDT / 2022.09.28 1951 UTC
Wind: from the ESE (120 degrees) at 10 MPH (9 KT) gusting to 22 MPH (19 KT):0
Visibility: 10 mile(s):0
Sky conditions: mostly clear
Temperature: 84.9 F (29.4 C)
Dew Point: 32.0 F (0.0 C)
Relative Humidity: 14%
Pressure (altimeter): 30.26 in. Hg (1024 hPa)
ob: KELP 281951Z 12009G19KT 10SM FEW120 FEW250 29/00 A3026 RMK AO2 PK WND 08030/1859 SLP175 T02940000
cycle: 20

Station Type Date Time Source
KELP TAF 2022/09/28 18:42 UTC NOAA

TAF KELP 281739Z 2818/2918 12012KT P6SM FEW250
FM290500 08007KT P6SM FEW250

Example: see airport list